createdAt,value
2018-12-18T00:00:18.869Z,10.77
2018-12-18T00:02:56.568Z,12.07
2018-12-18T00:05:31.271Z,10.23
2018-12-18T00:08:04.494Z,10.27
2018-12-18T00:10:43.818Z,8.97
2018-12-18T00:13:13.300Z,7.53
2018-12-18T00:15:43.966Z,5.97
2018-12-18T00:18:11.600Z,8.00
2018-12-18T00:20:39.090Z,7.33
2018-12-18T00:23:06.600Z,8.83
2018-12-18T00:25:37.237Z,9.83
2018-12-18T00:28:10.435Z,7.97
2018-12-18T00:30:43.854Z,6.10
2018-12-18T00:33:15.372Z,9.43
2018-12-18T00:35:49.348Z,6.40
2018-12-18T00:38:22.945Z,6.50
2018-12-18T00:40:54.153Z,7.80
2018-12-18T00:43:24.968Z,7.03
2018-12-18T00:45:52.915Z,5.43
2018-12-18T00:48:20.452Z,4.70
2018-12-18T00:50:54.538Z,4.63
2018-12-18T00:53:28.269Z,4.93
2018-12-18T00:55:55.996Z,4.87
2018-12-18T00:58:23.548Z,4.37
2018-12-18T01:00:51.087Z,4.00
2018-12-18T01:03:21.581Z,4.53
2018-12-18T01:05:52.131Z,4.70
2018-12-18T01:08:23.097Z,4.23
2018-12-18T01:10:57.107Z,4.30
2018-12-18T01:13:24.597Z,5.70
2018-12-18T01:15:55.434Z,3.50
2018-12-18T01:18:28.608Z,4.10
2018-12-18T01:21:00.148Z,3.87
2018-12-18T01:23:31.065Z,3.43
2018-12-18T01:25:58.757Z,4.70
2018-12-18T01:28:26.350Z,2.97
2018-12-18T01:30:59.968Z,5.40
2018-12-18T01:33:30.837Z,5.03
2018-12-18T01:36:04.661Z,3.03
2018-12-18T01:38:32.233Z,4.30
2018-12-18T01:41:03.001Z,4.43
2018-12-18T01:43:36.322Z,3.27
2018-12-18T01:46:09.856Z,3.20
2018-12-18T01:48:42.359Z,4.10
2018-12-18T01:51:13.180Z,2.60
2018-12-18T01:53:40.922Z,3.07
2018-12-18T01:56:15.016Z,3.90
2018-12-18T01:58:48.395Z,4.03
2018-12-18T02:01:19.058Z,3.40
2018-12-18T02:03:49.486Z,4.07
2018-12-18T02:06:22.762Z,3.80
2018-12-18T02:08:53.532Z,4.37
2018-12-18T02:11:25.146Z,3.00
2018-12-18T02:13:52.668Z,4.13
2018-12-18T02:16:23.269Z,2.50
2018-12-18T02:18:53.700Z,2.77
2018-12-18T02:21:27.642Z,2.70
2018-12-18T02:23:58.405Z,2.53
2018-12-18T02:26:26.072Z,2.50
2018-12-18T02:29:00.312Z,2.67
2018-12-18T02:31:30.791Z,3.23
2018-12-18T02:34:01.529Z,2.93
2018-12-18T02:36:32.196Z,2.30
2018-12-18T02:39:03.029Z,3.03
2018-12-18T02:41:36.420Z,3.33
2018-12-18T02:44:07.411Z,2.50
2018-12-18T02:46:41.840Z,1.83
2018-12-18T02:49:12.421Z,5.10
2018-12-18T02:51:45.651Z,2.43
2018-12-18T02:54:16.480Z,1.57
2018-12-18T02:56:46.936Z,2.07
2018-12-18T02:59:17.668Z,1.60
2018-12-18T03:01:45.205Z,1.40
2018-12-18T03:04:21.384Z,2.07
2018-12-18T03:06:49.328Z,2.60
2018-12-18T03:09:23.408Z,5.67
2018-12-18T03:11:54.093Z,3.13
2018-12-18T03:14:27.896Z,1.77
2018-12-18T03:17:03.232Z,1.80
2018-12-18T03:19:36.744Z,1.60
2018-12-18T03:22:07.493Z,1.73
2018-12-18T03:24:40.675Z,1.70
2018-12-18T03:27:08.259Z,2.40
2018-12-18T03:29:40.974Z,1.30
2018-12-18T03:32:11.984Z,1.13
2018-12-18T03:34:39.574Z,1.10
2018-12-18T03:37:07.063Z,1.17
2018-12-18T03:39:38.067Z,1.20
2018-12-18T03:42:08.481Z,1.10
2018-12-18T03:44:38.941Z,1.60
2018-12-18T03:47:06.661Z,1.53
2018-12-18T03:49:40.701Z,1.73
2018-12-18T03:52:11.664Z,1.13
2018-12-18T03:54:39.139Z,0.93
2018-12-18T03:57:10.056Z,0.80
2018-12-18T03:59:40.914Z,1.07
2018-12-18T04:02:14.692Z,0.90
2018-12-18T04:04:45.501Z,1.47
2018-12-18T04:07:13.036Z,1.80
2018-12-18T04:09:40.559Z,3.67
2018-12-18T04:12:09.072Z,2.57
2018-12-18T04:14:39.837Z,1.67
2018-12-18T04:17:10.280Z,0.90
2018-12-18T04:19:41.598Z,1.07
2018-12-18T04:22:15.055Z,0.70
2018-12-18T04:24:46.760Z,1.10
2018-12-18T04:27:14.248Z,0.80
2018-12-18T04:29:44.917Z,1.50
2018-12-18T04:32:18.666Z,1.03
2018-12-18T04:34:52.565Z,0.70
2018-12-18T04:37:23.696Z,1.00
2018-12-18T04:39:57.785Z,0.70
2018-12-18T04:42:31.527Z,1.87
2018-12-18T04:45:03.128Z,0.90
2018-12-18T04:47:35.626Z,1.00
2018-12-18T04:50:03.201Z,0.90
2018-12-18T04:52:34.540Z,1.10
2018-12-18T04:55:05.513Z,1.40
2018-12-18T04:57:36.577Z,0.87
2018-12-18T05:00:08.498Z,1.30
2018-12-18T05:02:39.421Z,0.80
2018-12-18T05:05:13.195Z,1.20
2018-12-18T05:07:47.068Z,2.60
2018-12-18T05:10:18.091Z,3.23
2018-12-18T05:12:48.547Z,0.90
2018-12-18T05:15:19.289Z,1.90
2018-12-18T05:17:49.763Z,1.20
2018-12-18T05:20:20.997Z,2.20
2018-12-18T05:22:54.425Z,1.67
2018-12-18T05:25:27.993Z,1.60
2018-12-18T05:27:59.131Z,1.00
2018-12-18T05:30:30.115Z,1.93
2018-12-18T05:33:03.332Z,3.97
2018-12-18T05:35:34.408Z,1.77
2018-12-18T05:38:01.909Z,1.50
2018-12-18T05:40:29.632Z,2.50
2018-12-18T05:43:02.817Z,1.93
2018-12-18T05:45:34.033Z,1.60
2018-12-18T05:48:04.959Z,2.07
2018-12-18T05:50:35.857Z,3.13
2018-12-18T05:53:09.458Z,0.70
2018-12-18T05:55:37.068Z,3.17
2018-12-18T05:58:04.578Z,6.80
2018-12-18T06:00:33.730Z,2.70
2018-12-18T06:03:07.221Z,1.67
2018-12-18T06:05:37.956Z,1.50
2018-12-18T06:08:08.486Z,2.73
2018-12-18T06:10:39.225Z,1.73
2018-12-18T06:13:06.766Z,5.90
2018-12-18T06:15:35.280Z,1.43
2018-12-18T06:18:08.752Z,2.43
2018-12-18T06:20:42.769Z,2.13
2018-12-18T06:23:14.012Z,4.10
2018-12-18T06:25:44.490Z,2.57
2018-12-18T06:28:14.973Z,3.27
2018-12-18T06:30:45.412Z,3.17
2018-12-18T06:33:18.730Z,3.43
2018-12-18T06:35:51.358Z,1.80
2018-12-18T06:38:21.943Z,2.27
2018-12-18T06:40:54.658Z,1.50
2018-12-18T06:43:22.186Z,1.40
2018-12-18T06:45:54.193Z,1.43
2018-12-18T06:48:25.688Z,0.87
2018-12-18T06:50:53.328Z,0.90
2018-12-18T06:53:23.872Z,3.67
2018-12-18T06:55:54.802Z,1.20
2018-12-18T06:58:28.493Z,0.70
2018-12-18T07:00:56.275Z,3.07
2018-12-18T07:03:29.847Z,1.00
2018-12-18T07:06:01.009Z,4.07
2018-12-18T07:08:32.173Z,5.20
2018-12-18T07:11:03.673Z,10.47
2018-12-18T07:13:41.144Z,6.23
2018-12-18T07:16:15.076Z,7.23
2018-12-18T07:18:48.809Z,6.57
2018-12-18T07:21:24.495Z,6.97
2018-12-18T07:23:55.266Z,5.73
2018-12-18T07:26:28.780Z,5.27
2018-12-18T07:28:59.828Z,5.20
2018-12-18T07:31:33.197Z,6.70
2018-12-18T07:34:07.735Z,9.00
2018-12-18T07:36:41.860Z,7.07
2018-12-18T07:39:15.716Z,4.23
2018-12-18T07:41:49.858Z,5.90
2018-12-18T07:44:20.575Z,6.93
2018-12-18T07:46:51.169Z,5.10
2018-12-18T07:49:24.448Z,4.90
2018-12-18T07:51:55.079Z,6.47
2018-12-18T07:54:25.733Z,3.37
2018-12-18T07:56:53.432Z,2.00
2018-12-18T07:59:26.986Z,2.23
2018-12-18T08:01:57.974Z,5.10
2018-12-18T08:04:25.636Z,5.20
2018-12-18T08:07:00.921Z,2.53
2018-12-18T08:09:33.469Z,2.33
2018-12-18T08:12:06.857Z,9.20
2018-12-18T08:14:40.713Z,3.47
2018-12-18T08:17:11.836Z,3.13
2018-12-18T08:19:39.547Z,2.67
2018-12-18T08:22:07.076Z,2.70
2018-12-18T08:24:34.589Z,1.83
2018-12-18T08:27:08.201Z,2.80
2018-12-18T08:29:41.701Z,5.10
2018-12-18T08:32:09.619Z,52.57
2018-12-18T08:34:40.494Z,37.10
2018-12-18T08:37:09.189Z,14.83
2018-12-18T08:39:42.771Z,2.80
2018-12-18T08:42:16.430Z,8.00
2018-12-18T08:44:47.459Z,13.83
2018-12-18T08:47:17.912Z,7.50
2018-12-18T08:49:45.387Z,11.00
2018-12-18T08:52:18.918Z,10.07
2018-12-18T08:54:50.051Z,6.43
2018-12-18T08:57:20.876Z,6.23
2018-12-18T08:59:52.196Z,7.07
2018-12-18T09:02:19.678Z,6.03
2018-12-18T09:04:50.166Z,7.40
2018-12-18T09:07:23.480Z,10.43
2018-12-18T09:09:54.892Z,7.10
2018-12-18T09:12:25.764Z,9.07
2018-12-18T09:14:57.253Z,8.77
2018-12-18T09:20:28.976Z,5.27
2018-12-18T09:23:00.029Z,6.90
2018-12-18T09:25:31.125Z,7.47
2018-12-18T09:28:02.148Z,3.13
2018-12-18T09:30:42.432Z,2.53
2018-12-18T09:33:08.427Z,2.10
2018-12-18T09:35:41.839Z,2.67
2018-12-18T09:38:21.256Z,5.13
2018-12-18T09:40:57.484Z,6.87
2018-12-18T09:43:34.168Z,6.17
2018-12-18T09:46:05.428Z,4.83
2018-12-18T09:48:32.972Z,5.47
2018-12-18T09:51:00.584Z,5.50
2018-12-18T09:53:28.080Z,8.20
2018-12-18T09:55:56.461Z,7.77
2018-12-18T09:58:29.652Z,5.07
2018-12-18T10:01:00.812Z,4.60
2018-12-18T10:03:33.683Z,5.83
2018-12-18T10:06:07.159Z,4.20
2018-12-18T10:08:41.015Z,6.07
2018-12-18T10:11:12.268Z,5.20
2018-12-18T10:13:42.795Z,4.60
2018-12-18T10:16:10.400Z,3.63
2018-12-18T10:18:37.908Z,7.23
2018-12-18T10:21:05.423Z,6.47
2018-12-18T10:23:35.872Z,3.97
2018-12-18T10:26:06.558Z,3.40
2018-12-18T10:28:37.299Z,2.80
2018-12-18T10:31:10.903Z,3.13
2018-12-18T10:33:44.656Z,2.83
2018-12-18T10:36:15.631Z,3.90
2018-12-18T10:38:46.384Z,4.33
2018-12-18T10:41:13.908Z,3.00
2018-12-18T10:43:41.459Z,3.43
2018-12-18T10:46:08.945Z,2.60
2018-12-18T10:48:36.439Z,3.27
2018-12-18T10:51:04.077Z,4.87
2018-12-18T10:53:31.580Z,5.33
2018-12-18T10:55:59.152Z,2.97
2018-12-18T10:58:26.669Z,2.73
2018-12-18T11:00:59.969Z,4.13
2018-12-18T11:03:27.544Z,2.70
2018-12-18T11:06:09.739Z,3.70
2018-12-18T11:08:37.788Z,5.80
2018-12-18T11:11:09.149Z,4.33
2018-12-18T11:13:40.163Z,3.80
2018-12-18T11:16:11.220Z,2.90
2018-12-18T11:18:42.580Z,1.97
2018-12-18T11:21:13.512Z,3.33
2018-12-18T11:23:45.674Z,3.10
2018-12-18T11:26:16.744Z,5.07
2018-12-18T11:28:48.208Z,5.10
2018-12-18T11:31:19.079Z,4.00
2018-12-18T11:33:53.084Z,2.80
2018-12-18T11:36:24.485Z,2.80
2018-12-18T11:38:55.595Z,4.23
2018-12-18T11:41:26.771Z,2.73
2018-12-18T11:43:57.743Z,2.97
2018-12-18T11:46:28.763Z,2.87
2018-12-18T11:49:02.090Z,4.20
2018-12-18T11:51:29.607Z,2.67
2018-12-18T11:54:00.652Z,5.83
2018-12-18T11:56:28.164Z,4.17
2018-12-18T11:58:55.660Z,5.03
2018-12-18T12:01:23.297Z,6.03
2018-12-18T12:03:50.819Z,3.90
2018-12-18T12:06:23.030Z,5.00
2018-12-18T12:08:47.853Z,3.57
2018-12-18T12:11:21.147Z,2.70
2018-12-18T12:13:55.019Z,3.97
2018-12-18T12:16:25.948Z,3.90
2018-12-18T12:21:58.295Z,6.00
2018-12-18T12:24:31.555Z,4.53
2018-12-18T12:27:04.268Z,3.53
2018-12-18T12:29:37.436Z,4.23
2018-12-18T12:32:08.772Z,2.97
2018-12-18T12:34:42.501Z,7.73
2018-12-18T12:37:16.475Z,5.77
2018-12-18T12:39:49.862Z,2.57
2018-12-18T12:42:20.591Z,3.77
2018-12-18T12:44:51.138Z,2.57
2018-12-18T12:47:21.603Z,7.33
2018-12-18T12:49:52.059Z,12.47
2018-12-18T12:52:25.433Z,20.20
2018-12-18T12:54:52.947Z,4.93
2018-12-18T12:57:24.100Z,3.57
2018-12-18T12:59:55.048Z,3.53
2018-12-18T13:02:25.483Z,2.57
2018-12-18T13:04:56.009Z,4.10
2018-12-18T13:07:23.475Z,2.80
2018-12-18T13:09:50.981Z,6.60
2018-12-18T13:12:21.574Z,3.93
2018-12-18T13:14:54.798Z,10.07
2018-12-18T13:17:26.049Z,10.17
2018-12-18T13:19:56.460Z,7.77
2018-12-18T13:22:28.888Z,9.10
2018-12-18T13:24:56.400Z,4.70
2018-12-18T13:27:27.015Z,4.80
2018-12-18T13:30:00.642Z,5.33
2018-12-18T13:32:33.871Z,8.43
2018-12-18T13:35:07.731Z,8.73
2018-12-18T13:37:41.318Z,12.87
2018-12-18T13:40:12.605Z,9.80
2018-12-18T13:42:43.723Z,6.83
2018-12-18T13:45:17.670Z,8.07
2018-12-18T13:47:48.654Z,8.80
2018-12-18T13:50:19.516Z,9.07
2018-12-18T13:52:50.466Z,11.10
2018-12-18T13:55:21.460Z,8.30
2018-12-18T13:57:52.551Z,12.13
2018-12-18T14:00:23.408Z,7.03
2018-12-18T14:02:50.940Z,5.67
2018-12-18T14:05:18.445Z,9.00
2018-12-18T14:07:45.923Z,10.17
2018-12-18T14:10:19.512Z,8.03
2018-12-18T14:12:52.722Z,8.97
2018-12-18T14:15:20.278Z,9.27
2018-12-18T14:17:51.654Z,7.60
2018-12-18T14:20:22.407Z,7.80
2018-12-18T14:22:52.937Z,7.80
2018-12-18T14:25:20.436Z,10.13
2018-12-18T14:27:53.764Z,8.87
2018-12-18T14:30:27.348Z,8.03
2018-12-18T14:32:58.411Z,11.50
2018-12-18T14:35:28.975Z,10.63
2018-12-18T14:38:01.428Z,10.87
2018-12-18T14:40:31.960Z,8.43
2018-12-18T14:42:59.450Z,9.80
2018-12-18T14:45:30.047Z,9.93
2018-12-18T14:48:03.517Z,9.60
2018-12-18T14:50:34.101Z,13.33
2018-12-18T14:53:07.384Z,17.97
2018-12-18T14:55:41.192Z,18.60
2018-12-18T14:58:12.381Z,14.67
2018-12-18T15:00:43.156Z,14.00
2018-12-18T15:03:14.115Z,25.33
2018-12-18T15:05:48.000Z,11.73
2018-12-18T15:08:18.454Z,9.80
2018-12-18T15:10:52.071Z,9.87
2018-12-18T15:13:26.184Z,12.00
2018-12-18T15:16:00.276Z,9.70
2018-12-18T15:18:34.403Z,10.53
2018-12-18T15:21:05.590Z,10.60
2018-12-18T15:23:38.896Z,11.87
2018-12-18T15:26:12.893Z,12.67
2018-12-18T15:28:43.984Z,9.70
2018-12-18T15:31:17.833Z,12.07
2018-12-18T15:33:48.979Z,12.20
2018-12-18T15:36:22.630Z,8.47
2018-12-18T15:38:53.739Z,11.73
2018-12-18T15:41:27.501Z,10.77
2018-12-18T15:44:01.639Z,15.20
2018-12-18T15:46:32.883Z,9.80
2018-12-18T15:49:04.383Z,11.03
2018-12-18T15:51:35.322Z,9.93
2018-12-18T15:54:09.812Z,8.33
2018-12-18T15:56:41.084Z,10.23
2018-12-18T15:59:14.863Z,10.33
2018-12-18T16:01:42.392Z,13.10
2018-12-18T16:04:13.584Z,12.43
2018-12-18T16:06:44.102Z,12.40
2018-12-18T16:09:14.949Z,12.33
2018-12-18T16:11:48.518Z,12.63
2018-12-18T16:14:24.262Z,11.80
2018-12-18T16:16:58.247Z,12.17
2018-12-18T16:19:29.464Z,11.73
2018-12-18T16:22:00.351Z,11.17
2018-12-18T16:24:33.645Z,16.60
2018-12-18T16:27:05.234Z,15.20
2018-12-18T16:29:39.267Z,15.60
2018-12-18T16:32:13.577Z,12.83
2018-12-18T16:34:44.869Z,19.17
2018-12-18T16:37:23.052Z,12.80
2018-12-18T16:39:52.132Z,13.97
2018-12-18T16:42:22.873Z,17.67
2018-12-18T16:44:56.668Z,12.67
2018-12-18T16:47:27.696Z,17.97
2018-12-18T16:49:58.633Z,12.80
2018-12-18T16:52:26.125Z,16.77
2018-12-18T16:54:56.772Z,15.23
2018-12-18T16:57:31.272Z,13.40
2018-12-18T17:00:01.730Z,11.13
2018-12-18T17:02:32.696Z,12.67
2018-12-18T17:05:04.671Z,11.07
2018-12-18T17:07:35.523Z,14.23
2018-12-18T17:10:09.444Z,14.30
2018-12-18T17:12:42.792Z,15.83
2018-12-18T17:15:13.598Z,17.63
2018-12-18T17:17:44.771Z,14.60
2018-12-18T17:20:15.877Z,14.53
2018-12-18T17:22:46.870Z,16.93
2018-12-18T17:25:20.897Z,14.03
2018-12-18T17:27:52.027Z,11.90
2018-12-18T17:30:25.519Z,13.97
2018-12-18T17:32:59.444Z,14.73
2018-12-18T17:35:30.413Z,17.13
2018-12-18T17:38:03.901Z,14.13
2018-12-18T17:40:35.124Z,16.53
2018-12-18T17:43:09.174Z,15.87
2018-12-18T17:45:36.796Z,13.77
2018-12-18T17:48:10.509Z,20.57
2018-12-18T17:50:39.531Z,20.37
2018-12-18T17:53:10.384Z,17.47
2018-12-18T17:55:44.066Z,17.23
2018-12-18T17:58:15.210Z,16.83
2018-12-18T18:00:46.507Z,24.30
2018-12-18T18:03:20.433Z,24.13
2018-12-18T18:05:50.997Z,24.93
2018-12-18T18:08:22.176Z,19.13
2018-12-18T18:10:56.250Z,19.17
2018-12-18T18:13:27.623Z,18.40
2018-12-18T18:15:58.921Z,22.30
2018-12-18T18:18:30.083Z,20.13
2018-12-18T18:21:01.357Z,18.87
2018-12-18T18:23:32.444Z,15.80
2018-12-18T18:26:02.975Z,17.60
2018-12-18T18:28:33.721Z,19.73
2018-12-18T18:31:04.902Z,20.13
2018-12-18T18:33:38.739Z,19.17
2018-12-18T18:36:10.052Z,17.40
2018-12-18T18:38:41.080Z,17.53
2018-12-18T18:41:14.929Z,17.83
2018-12-18T18:43:48.968Z,19.47
2018-12-18T18:46:20.296Z,17.33
2018-12-18T18:48:53.985Z,18.07
2018-12-18T18:51:24.925Z,20.70
2018-12-18T18:53:58.945Z,18.43
2018-12-18T18:56:30.327Z,18.27
2018-12-18T18:59:01.117Z,17.70
2018-12-18T19:01:32.197Z,18.67
2018-12-18T19:04:03.506Z,18.97
2018-12-18T19:06:34.462Z,23.47
2018-12-18T19:09:05.099Z,24.30
2018-12-18T19:11:36.293Z,19.83
2018-12-18T19:14:07.298Z,20.77
2018-12-18T19:16:38.063Z,21.87
2018-12-18T19:19:11.917Z,25.83
2018-12-18T19:21:45.924Z,26.93
2018-12-18T19:24:17.141Z,28.03
2018-12-18T19:26:50.957Z,32.13
2018-12-18T19:29:22.357Z,20.43
2018-12-18T19:31:53.570Z,20.47
2018-12-18T19:34:27.513Z,22.63
2018-12-18T19:36:58.964Z,18.53
2018-12-18T19:39:32.616Z,20.97
2018-12-18T19:42:03.994Z,20.97
2018-12-18T19:44:38.026Z,20.53
2018-12-18T19:47:12.274Z,22.20
2018-12-18T19:49:46.054Z,21.07
2018-12-18T19:52:16.760Z,17.43
2018-12-18T19:54:50.525Z,21.27
2018-12-18T19:57:23.734Z,19.73
2018-12-18T19:59:57.536Z,21.83
2018-12-18T20:02:28.800Z,21.00
2018-12-18T20:04:59.738Z,22.73
2018-12-18T20:07:30.819Z,23.43
2018-12-18T20:10:04.634Z,23.97
2018-12-18T20:12:32.139Z,26.43
2018-12-18T20:15:03.636Z,21.83
2018-12-18T20:17:36.891Z,21.00
2018-12-18T20:20:06.916Z,21.67
2018-12-18T20:22:37.367Z,25.90
2018-12-18T20:25:10.693Z,25.13
2018-12-18T20:27:41.966Z,23.70
2018-12-18T20:30:13.013Z,22.70
2018-12-18T20:32:46.857Z,22.63
2018-12-18T20:35:18.088Z,26.73
2018-12-18T20:37:45.638Z,26.17
2018-12-18T20:40:19.809Z,27.83
2018-12-18T20:42:53.513Z,22.13
2018-12-18T20:45:27.392Z,24.53
2018-12-18T20:47:56.422Z,24.60
2018-12-18T20:50:27.472Z,28.63
2018-12-18T20:52:58.487Z,23.93
2018-12-18T20:55:32.350Z,26.17
2018-12-18T20:58:03.499Z,23.93
2018-12-18T21:00:34.446Z,29.13
2018-12-18T21:03:05.448Z,28.33
2018-12-18T21:05:39.192Z,24.50
2018-12-18T21:08:15.144Z,29.70
2018-12-18T21:10:45.680Z,29.87
2018-12-18T21:13:22.306Z,28.13
2018-12-18T21:15:52.745Z,30.03
2018-12-18T21:18:23.855Z,29.93
2018-12-18T21:20:55.065Z,30.30
2018-12-18T21:23:26.227Z,32.57
2018-12-18T21:25:57.604Z,30.50
2018-12-18T21:28:28.949Z,30.30
2018-12-18T21:30:59.379Z,29.80
2018-12-18T21:33:30.232Z,29.93
2018-12-18T21:36:01.506Z,30.23
2018-12-18T21:38:35.238Z,28.77
2018-12-18T21:41:03.340Z,28.60
2018-12-18T21:43:30.829Z,30.97
2018-12-18T21:46:01.858Z,30.67
2018-12-18T21:48:32.522Z,26.77
2018-12-18T21:51:06.218Z,27.00
2018-12-18T21:53:37.717Z,23.77
2018-12-18T21:56:09.824Z,28.27
2018-12-18T21:58:43.584Z,25.53
2018-12-18T22:01:14.712Z,24.23
2018-12-18T22:03:45.755Z,27.17
2018-12-18T22:06:16.678Z,25.87
2018-12-18T22:08:50.071Z,30.03
2018-12-18T22:11:20.930Z,27.23
2018-12-18T22:13:52.005Z,27.67
2018-12-18T22:16:22.780Z,28.17
2018-12-18T22:18:50.271Z,30.00
2018-12-18T22:21:20.909Z,29.57
2018-12-18T22:23:53.125Z,28.13
2018-12-18T22:26:27.124Z,28.87
2018-12-18T22:28:54.638Z,27.80
2018-12-18T22:31:25.404Z,27.93
2018-12-18T22:33:55.949Z,26.60
2018-12-18T22:36:29.339Z,33.87
2018-12-18T22:39:05.156Z,28.73
2018-12-18T22:41:35.672Z,28.87
2018-12-18T22:44:06.844Z,29.37
2018-12-18T22:46:40.682Z,34.47
2018-12-18T22:49:14.947Z,34.00
2018-12-18T22:51:49.061Z,33.07
2018-12-18T22:54:20.620Z,33.00
2018-12-18T22:56:51.602Z,39.00
2018-12-18T22:59:25.400Z,32.10
2018-12-18T23:01:56.624Z,34.90
2018-12-18T23:04:27.689Z,34.77
2018-12-18T23:07:01.320Z,33.40
2018-12-18T23:09:37.156Z,33.90
2018-12-18T23:12:08.522Z,32.60
2018-12-18T23:14:39.562Z,36.33
2018-12-18T23:17:10.614Z,32.33
2018-12-18T23:19:41.561Z,32.63
2018-12-18T23:22:12.728Z,37.50
2018-12-18T23:24:43.632Z,29.70
2018-12-18T23:27:17.233Z,35.20
2018-12-18T23:29:50.882Z,32.40
2018-12-18T23:32:22.114Z,34.97
2018-12-18T23:34:53.161Z,37.07
2018-12-18T23:37:24.212Z,34.70
2018-12-18T23:39:54.768Z,37.07
2018-12-18T23:42:25.735Z,32.37
2018-12-18T23:44:56.740Z,37.77
2018-12-18T23:47:30.015Z,33.67
2018-12-18T23:50:00.773Z,30.97
2018-12-18T23:52:31.688Z,34.27
2018-12-18T23:55:02.760Z,30.07
2018-12-18T23:57:36.392Z,29.80
